sensor_id;sensor_type;location;lat;lon;timestamp;pressure;altitude;pressure_sealevel;temperature;humidity
79347;BME280;68815;48.810;44.482;2023-07-13T00:00:57;100276;;;19.3;61.1
79347;BME280;68815;48.810;44.482;2023-07-13T00:03:59;100278;;;19.3;61.3
79347;BME280;68815;48.810;44.482;2023-07-13T00:07:00;100282;;;19;62
79347;BME280;68815;48.810;44.482;2023-07-13T00:10:02;100269;;;19;62.3
79347;BME280;68815;48.810;44.482;2023-07-13T00:13:04;100272;;;19;62.5
79347;BME280;68815;48.810;44.482;2023-07-13T00:16:06;100268;;;18.9;62.9
79347;BME280;68815;48.810;44.482;2023-07-13T00:19:07;100266;;;18.7;63.9
79347;BME280;68815;48.810;44.482;2023-07-13T00:22:09;100282;;;18.5;64.5
79347;BME280;68815;48.810;44.482;2023-07-13T00:25:11;100292;;;18.6;64.1
79347;BME280;68815;48.810;44.482;2023-07-13T00:28:12;100298;;;18.6;64.7
79347;BME280;68815;48.810;44.482;2023-07-13T00:31:14;100302;;;18.7;63.5
79347;BME280;68815;48.810;44.482;2023-07-13T00:34:16;100303;;;18.7;63.9
79347;BME280;68815;48.810;44.482;2023-07-13T00:37:17;100297;;;18.8;63.8
79347;BME280;68815;48.810;44.482;2023-07-13T00:40:19;100299;;;19;62.5
79347;BME280;68815;48.810;44.482;2023-07-13T00:43:22;100308;;;18.9;63
79347;BME280;68815;48.810;44.482;2023-07-13T00:46:26;100309;;;18.9;63.1
79347;BME280;68815;48.810;44.482;2023-07-13T00:49:30;100307;;;18.7;63.9
79347;BME280;68815;48.810;44.482;2023-07-13T00:52:33;100310;;;18.4;64.9
79347;BME280;68815;48.810;44.482;2023-07-13T00:55:36;100309;;;18.1;66
79347;BME280;68815;48.810;44.482;2023-07-13T00:58:38;100307;;;18;65.9
79347;BME280;68815;48.810;44.482;2023-07-13T01:01:39;100292;;;17.7;67
79347;BME280;68815;48.810;44.482;2023-07-13T01:04:41;100279;;;18;66.2
79347;BME280;68815;48.810;44.482;2023-07-13T01:07:44;100276;;;18.1;65.3
79347;BME280;68815;48.810;44.482;2023-07-13T01:10:51;100266;;;18.1;65.9
79347;BME280;68815;48.810;44.482;2023-07-13T01:13:53;100264;;;17.9;66.7
79347;BME280;68815;48.810;44.482;2023-07-13T01:16:55;100274;;;18.3;65.1
79347;BME280;68815;48.810;44.482;2023-07-13T01:19:57;100279;;;18.2;65.7
79347;BME280;68815;48.810;44.482;2023-07-13T01:22:58;100282;;;18;65.6
79347;BME280;68815;48.810;44.482;2023-07-13T01:26:00;100284;;;18.1;66
79347;BME280;68815;48.810;44.482;2023-07-13T01:29:01;100287;;;18.1;64.5
79347;BME280;68815;48.810;44.482;2023-07-13T01:32:03;100293;;;18.1;64.2
79347;BME280;68815;48.810;44.482;2023-07-13T01:35:05;100292;;;17.8;64.7
79347;BME280;68815;48.810;44.482;2023-07-13T01:38:07;100298;;;17.7;65.3
79347;BME280;68815;48.810;44.482;2023-07-13T01:41:09;100301;;;17.8;63.5
79347;BME280;68815;48.810;44.482;2023-07-13T01:44:10;100305;;;17.8;63.4
79347;BME280;68815;48.810;44.482;2023-07-13T01:47:12;100311;;;18;63.8
79347;BME280;68815;48.810;44.482;2023-07-13T01:50:14;100314;;;18.1;63.5
79347;BME280;68815;48.810;44.482;2023-07-13T01:53:15;100317;;;18.3;62.9
79347;BME280;68815;48.810;44.482;2023-07-13T01:56:17;100325;;;18.4;62.5
79347;BME280;68815;48.810;44.482;2023-07-13T01:59:19;100333;;;18.3;63.4
79347;BME280;68815;48.810;44.482;2023-07-13T02:02:51;100327;;;18.3;63.5
79347;BME280;68815;48.810;44.482;2023-07-13T02:05:53;100327;;;18.1;64.1
79347;BME280;68815;48.810;44.482;2023-07-13T02:08:55;100330;;;18.3;64.3
79347;BME280;68815;48.810;44.482;2023-07-13T02:11:56;100330;;;18.5;63.7
79347;BME280;68815;48.810;44.482;2023-07-13T02:14:58;100326;;;18.6;63.8
79347;BME280;68815;48.810;44.482;2023-07-13T02:17:59;100316;;;18.9;63.5
79347;BME280;68815;48.810;44.482;2023-07-13T02:21:01;100324;;;19.1;62.2
79347;BME280;68815;48.810;44.482;2023-07-13T02:24:03;100327;;;19.2;62.8
79347;BME280;68815;48.810;44.482;2023-07-13T02:27:05;100330;;;19.6;60.8
79347;BME280;68815;48.810;44.482;2023-07-13T02:30:10;100330;;;19.5;60.9
79347;BME280;68815;48.810;44.482;2023-07-13T02:33:12;100323;;;19.4;61.6
79347;BME280;68815;48.810;44.482;2023-07-13T02:36:14;100325;;;19.6;62
79347;BME280;68815;48.810;44.482;2023-07-13T02:39:15;100323;;;20;60.6
79347;BME280;68815;48.810;44.482;2023-07-13T02:42:17;100325;;;20;60.5
79347;BME280;68815;48.810;44.482;2023-07-13T02:45:18;100340;;;20.1;60.6
79347;BME280;68815;48.810;44.482;2023-07-13T02:48:20;100330;;;20.4;59.8
79347;BME280;68815;48.810;44.482;2023-07-13T02:51:21;100337;;;20.4;59.6
79347;BME280;68815;48.810;44.482;2023-07-13T02:54:23;100335;;;20.7;59.2
79347;BME280;68815;48.810;44.482;2023-07-13T02:57:24;100336;;;20.8;58.9
79347;BME280;68815;48.810;44.482;2023-07-13T03:00:25;100340;;;21;58.6
79347;BME280;68815;48.810;44.482;2023-07-13T03:03:27;100336;;;21;58.6
79347;BME280;68815;48.810;44.482;2023-07-13T03:06:30;100330;;;21.4;57.3
79347;BME280;68815;48.810;44.482;2023-07-13T03:09:35;100347;;;21.5;57.8
79347;BME280;68815;48.810;44.482;2023-07-13T03:12:36;100349;;;21.4;57.9
79347;BME280;68815;48.810;44.482;2023-07-13T03:15:38;100342;;;21.7;57.8
79347;BME280;68815;48.810;44.482;2023-07-13T03:18:40;100345;;;22;55.3
79347;BME280;68815;48.810;44.482;2023-07-13T03:21:41;100351;;;22.4;54.5
79347;BME280;68815;48.810;44.482;2023-07-13T03:24:42;100353;;;22.4;54.1
79347;BME280;68815;48.810;44.482;2023-07-13T03:27:44;100357;;;22.3;54.7
79347;BME280;68815;48.810;44.482;2023-07-13T03:30:45;100360;;;22.4;54.9
79347;BME280;68815;48.810;44.482;2023-07-13T03:33:47;100362;;;22.4;54.1
79347;BME280;68815;48.810;44.482;2023-07-13T03:36:49;100358;;;22.1;55.4
79347;BME280;68815;48.810;44.482;2023-07-13T03:39:50;100357;;;22.2;54.8
79347;BME280;68815;48.810;44.482;2023-07-13T03:42:52;100358;;;22.3;54.2
79347;BME280;68815;48.810;44.482;2023-07-13T03:45:53;100365;;;22.5;53.7
79347;BME280;68815;48.810;44.482;2023-07-13T03:48:55;100370;;;22.9;52.2
79347;BME280;68815;48.810;44.482;2023-07-13T03:51:56;100370;;;23;51.7
79347;BME280;68815;48.810;44.482;2023-07-13T03:54:58;100370;;;22.7;51.9
79347;BME280;68815;48.810;44.482;2023-07-13T04:01:31;100383;;;23.5;50.2
79347;BME280;68815;48.810;44.482;2023-07-13T04:04:32;100382;;;24;48.9
79347;BME280;68815;48.810;44.482;2023-07-13T04:07:34;100377;;;24.1;47.4
79347;BME280;68815;48.810;44.482;2023-07-13T04:10:35;100383;;;24.3;47
79347;BME280;68815;48.810;44.482;2023-07-13T04:13:37;100384;;;24.2;46.1
79347;BME280;68815;48.810;44.482;2023-07-13T04:16:38;100389;;;24.8;45.4
79347;BME280;68815;48.810;44.482;2023-07-13T04:19:39;100389;;;24.8;44.6
79347;BME280;68815;48.810;44.482;2023-07-13T04:22:41;100392;;;25.2;44.3
79347;BME280;68815;48.810;44.482;2023-07-13T04:25:43;100396;;;25.4;44.3
79347;BME280;68815;48.810;44.482;2023-07-13T04:28:45;100401;;;25.4;42
79347;BME280;68815;48.810;44.482;2023-07-13T04:31:47;100405;;;25.9;40.9
79347;BME280;68815;48.810;44.482;2023-07-13T04:34:48;100411;;;25.8;40.6
79347;BME280;68815;48.810;44.482;2023-07-13T04:37:50;100408;;;26;41.5
79347;BME280;68815;48.810;44.482;2023-07-13T04:40:51;100402;;;26.6;40.4
79347;BME280;68815;48.810;44.482;2023-07-13T04:43:52;100407;;;26.4;39.2
79347;BME280;68815;48.810;44.482;2023-07-13T04:46:54;100410;;;26.5;39.9
79347;BME280;68815;48.810;44.482;2023-07-13T04:49:55;100413;;;27;38.8
79347;BME280;68815;48.810;44.482;2023-07-13T04:52:57;100424;;;27.1;37.8
79347;BME280;68815;48.810;44.482;2023-07-13T04:55:58;100419;;;27;37.2
79347;BME280;68815;48.810;44.482;2023-07-13T04:58:59;100432;;;27.4;36.9
79347;BME280;68815;48.810;44.482;2023-07-13T05:02:02;100432;;;27.8;36
79347;BME280;68815;48.810;44.482;2023-07-13T05:05:04;100427;;;28.4;35.2
79347;BME280;68815;48.810;44.482;2023-07-13T05:08:06;100423;;;28.9;33.5
79347;BME280;68815;48.810;44.482;2023-07-13T05:11:07;100422;;;28.5;33
79347;BME280;68815;48.810;44.482;2023-07-13T05:14:10;100429;;;29;33.3
79347;BME280;68815;48.810;44.482;2023-07-13T05:17:11;100424;;;29.5;32.3
79347;BME280;68815;48.810;44.482;2023-07-13T05:20:13;100424;;;30;31
79347;BME280;68815;48.810;44.482;2023-07-13T05:23:15;100421;;;29.4;31.3
79347;BME280;68815;48.810;44.482;2023-07-13T05:26:17;100416;;;27.8;32.3
79347;BME280;68815;48.810;44.482;2023-07-13T05:29:19;100420;;;26.9;35
79347;BME280;68815;48.810;44.482;2023-07-13T05:32:20;100413;;;26;36
79347;BME280;68815;48.810;44.482;2023-07-13T05:35:21;100415;;;25.6;38.3
79347;BME280;68815;48.810;44.482;2023-07-13T05:38:23;100416;;;24.8;37.6
79347;BME280;68815;48.810;44.482;2023-07-13T05:41:24;100415;;;24.4;40.2
79347;BME280;68815;48.810;44.482;2023-07-13T05:44:26;100412;;;24.3;40.2
79347;BME280;68815;48.810;44.482;2023-07-13T05:47:27;100415;;;24.3;39.3
79347;BME280;68815;48.810;44.482;2023-07-13T05:50:29;100423;;;24.3;39.6
79347;BME280;68815;48.810;44.482;2023-07-13T05:53:30;100422;;;24.2;39.8
79347;BME280;68815;48.810;44.482;2023-07-13T05:56:32;100426;;;24.2;40.1
79347;BME280;68815;48.810;44.482;2023-07-13T05:59:33;100427;;;24;40.5
79347;BME280;68815;48.810;44.482;2023-07-13T06:02:35;100428;;;23.8;40
79347;BME280;68815;48.810;44.482;2023-07-13T06:05:37;100421;;;23.5;41
79347;BME280;68815;48.810;44.482;2023-07-13T06:08:39;100422;;;23.3;40.4
79347;BME280;68815;48.810;44.482;2023-07-13T06:11:40;100427;;;22.8;41.8
79347;BME280;68815;48.810;44.482;2023-07-13T06:14:42;100427;;;23;40.7
79347;BME280;68815;48.810;44.482;2023-07-13T06:17:43;100424;;;23;42.2
79347;BME280;68815;48.810;44.482;2023-07-13T06:20:45;100426;;;23.1;40.9
79347;BME280;68815;48.810;44.482;2023-07-13T06:23:48;100427;;;22.9;40.2
79347;BME280;68815;48.810;44.482;2023-07-13T06:26:50;100429;;;22.6;40.5
79347;BME280;68815;48.810;44.482;2023-07-13T06:29:51;100432;;;22.4;42.4
79347;BME280;68815;48.810;44.482;2023-07-13T06:32:53;100431;;;22.4;40.8
79347;BME280;68815;48.810;44.482;2023-07-13T06:35:54;100432;;;22.6;41.6
79347;BME280;68815;48.810;44.482;2023-07-13T06:38:57;100434;;;22.6;41.4
79347;BME280;68815;48.810;44.482;2023-07-13T06:41:59;100432;;;22.4;42.3
79347;BME280;68815;48.810;44.482;2023-07-13T06:45:01;100441;;;22.5;43.1
79347;BME280;68815;48.810;44.482;2023-07-13T06:48:03;100439;;;22.5;41.5
79347;BME280;68815;48.810;44.482;2023-07-13T06:51:05;100439;;;22.5;42
79347;BME280;68815;48.810;44.482;2023-07-13T06:54:07;100434;;;22.6;41.3
79347;BME280;68815;48.810;44.482;2023-07-13T06:57:08;100436;;;22.5;41.9
79347;BME280;68815;48.810;44.482;2023-07-13T07:00:10;100428;;;22.5;42.8
79347;BME280;68815;48.810;44.482;2023-07-13T07:03:12;100431;;;22.5;41.9
79347;BME280;68815;48.810;44.482;2023-07-13T07:06:17;100428;;;22.5;42.8
79347;BME280;68815;48.810;44.482;2023-07-13T07:09:19;100421;;;22.9;41.7
79347;BME280;68815;48.810;44.482;2023-07-13T07:12:21;100423;;;23.1;41.5
79347;BME280;68815;48.810;44.482;2023-07-13T07:15:22;100429;;;22.8;41.1
79347;BME280;68815;48.810;44.482;2023-07-13T07:18:24;100427;;;23.1;41.9
79347;BME280;68815;48.810;44.482;2023-07-13T07:21:25;100429;;;23.4;40.5
79347;BME280;68815;48.810;44.482;2023-07-13T07:24:26;100443;;;23.7;38.9
79347;BME280;68815;48.810;44.482;2023-07-13T07:27:29;100437;;;23.6;38.4
79347;BME280;68815;48.810;44.482;2023-07-13T07:30:30;100439;;;23.4;36.9
79347;BME280;68815;48.810;44.482;2023-07-13T07:33:33;100446;;;23.6;37.1
79347;BME280;68815;48.810;44.482;2023-07-13T07:36:34;100452;;;23.7;36.5
79347;BME280;68815;48.810;44.482;2023-07-13T07:39:36;100443;;;23.8;37.6
79347;BME280;68815;48.810;44.482;2023-07-13T07:42:38;100439;;;23.3;37.8
79347;BME280;68815;48.810;44.482;2023-07-13T07:45:40;100443;;;23.5;37.1
79347;BME280;68815;48.810;44.482;2023-07-13T07:48:41;100450;;;23.6;36.8
79347;BME280;68815;48.810;44.482;2023-07-13T07:51:42;100454;;;23.9;37.7
79347;BME280;68815;48.810;44.482;2023-07-13T07:54:44;100452;;;23.7;37.2
79347;BME280;68815;48.810;44.482;2023-07-13T07:57:45;100452;;;23.7;37.6
79347;BME280;68815;48.810;44.482;2023-07-13T08:00:47;100445;;;23.8;35.6
79347;BME280;68815;48.810;44.482;2023-07-13T08:03:48;100448;;;23.5;36.2
79347;BME280;68815;48.810;44.482;2023-07-13T08:06:50;100449;;;23.4;35.9
79347;BME280;68815;48.810;44.482;2023-07-13T08:09:52;100446;;;23.6;36.7
79347;BME280;68815;48.810;44.482;2023-07-13T08:12:53;100449;;;23.5;34.4
79347;BME280;68815;48.810;44.482;2023-07-13T08:15:55;100450;;;23.6;37
79347;BME280;68815;48.810;44.482;2023-07-13T08:18:56;100456;;;23.8;35.1
79347;BME280;68815;48.810;44.482;2023-07-13T08:21:58;100456;;;24;34.1
79347;BME280;68815;48.810;44.482;2023-07-13T08:25:00;100448;;;23.8;35
79347;BME280;68815;48.810;44.482;2023-07-13T08:28:01;100450;;;23.7;34.3
79347;BME280;68815;48.810;44.482;2023-07-13T08:31:07;100451;;;23.9;35.1
79347;BME280;68815;48.810;44.482;2023-07-13T08:34:09;100455;;;24;33.5
79347;BME280;68815;48.810;44.482;2023-07-13T08:37:11;100446;;;23.7;35.8
79347;BME280;68815;48.810;44.482;2023-07-13T08:40:13;100436;;;23.1;33.8
79347;BME280;68815;48.810;44.482;2023-07-13T08:43:16;100437;;;22.7;34.4
79347;BME280;68815;48.810;44.482;2023-07-13T08:46:24;100436;;;23.1;32.7
79347;BME280;68815;48.810;44.482;2023-07-13T08:49:28;100444;;;23.4;34
79347;BME280;68815;48.810;44.482;2023-07-13T08:52:32;100453;;;23.6;32.3
79347;BME280;68815;48.810;44.482;2023-07-13T08:55:36;100448;;;23.6;33.4
79347;BME280;68815;48.810;44.482;2023-07-13T08:58:38;100462;;;23.8;33.7
79347;BME280;68815;48.810;44.482;2023-07-13T09:01:54;100452;;;23.7;33.1
79347;BME280;68815;48.810;44.482;2023-07-13T09:05:02;100457;;;23.5;33.8
79347;BME280;68815;48.810;44.482;2023-07-13T09:08:15;100450;;;23.5;34.4
79347;BME280;68815;48.810;44.482;2023-07-13T09:11:32;100451;;;23.5;33.4
79347;BME280;68815;48.810;44.482;2023-07-13T09:14:42;100449;;;23.3;34.4
79347;BME280;68815;48.810;44.482;2023-07-13T09:17:49;100459;;;23.4;33.9
79347;BME280;68815;48.810;44.482;2023-07-13T09:20:54;100434;;;23.8;32.5
79347;BME280;68815;48.810;44.482;2023-07-13T09:24:01;100454;;;23.9;33.5
79347;BME280;68815;48.810;44.482;2023-07-13T09:27:05;100445;;;23.8;34.3
79347;BME280;68815;48.810;44.482;2023-07-13T09:30:21;100440;;;23.7;32.4
79347;BME280;68815;48.810;44.482;2023-07-13T09:33:24;100441;;;23.9;33.9
79347;BME280;68815;48.810;44.482;2023-07-13T09:36:29;100440;;;24.2;32.7
79347;BME280;68815;48.810;44.482;2023-07-13T09:39:33;100445;;;24;33.6
79347;BME280;68815;48.810;44.482;2023-07-13T09:42:38;100445;;;24;33.9
79347;BME280;68815;48.810;44.482;2023-07-13T09:45:39;100441;;;23.7;32.6
79347;BME280;68815;48.810;44.482;2023-07-13T09:48:42;100448;;;23.5;34.1
79347;BME280;68815;48.810;44.482;2023-07-13T09:51:44;100446;;;23.8;33
79347;BME280;68815;48.810;44.482;2023-07-13T09:54:49;100438;;;24;32.1
79347;BME280;68815;48.810;44.482;2023-07-13T09:57:52;100446;;;23.8;31.3
79347;BME280;68815;48.810;44.482;2023-07-13T10:00:56;100441;;;23.6;31.5
79347;BME280;68815;48.810;44.482;2023-07-13T10:03:58;100448;;;23.8;32.7
79347;BME280;68815;48.810;44.482;2023-07-13T10:07:06;100448;;;23.9;31.9
79347;BME280;68815;48.810;44.482;2023-07-13T10:10:15;100441;;;24.2;32.3
79347;BME280;68815;48.810;44.482;2023-07-13T10:13:33;100442;;;24.1;31.5
79347;BME280;68815;48.810;44.482;2023-07-13T10:16:36;100438;;;24.1;30.6
79347;BME280;68815;48.810;44.482;2023-07-13T10:19:38;100444;;;23.9;30.9
79347;BME280;68815;48.810;44.482;2023-07-13T10:22:44;100441;;;23.7;31.1
79347;BME280;68815;48.810;44.482;2023-07-13T10:25:50;100434;;;24;31.9
79347;BME280;68815;48.810;44.482;2023-07-13T10:28:55;100433;;;24.4;30.4
79347;BME280;68815;48.810;44.482;2023-07-13T10:31:59;100438;;;24.5;29.6
79347;BME280;68815;48.810;44.482;2023-07-13T10:35:00;100432;;;24.3;30.6
79347;BME280;68815;48.810;44.482;2023-07-13T10:38:05;100434;;;24.4;31.4
79347;BME280;68815;48.810;44.482;2023-07-13T10:41:10;100439;;;24.4;29.8
79347;BME280;68815;48.810;44.482;2023-07-13T10:44:19;100427;;;24.5;28.6
79347;BME280;68815;48.810;44.482;2023-07-13T10:47:22;100432;;;24.5;30.1
79347;BME280;68815;48.810;44.482;2023-07-13T10:50:28;100426;;;24.7;30.2
79347;BME280;68815;48.810;44.482;2023-07-13T10:53:31;100434;;;24.7;29.8
79347;BME280;68815;48.810;44.482;2023-07-13T10:56:33;100436;;;24.6;30.5
79347;BME280;68815;48.810;44.482;2023-07-13T10:59:35;100424;;;24.7;30.2
79347;BME280;68815;48.810;44.482;2023-07-13T11:02:36;100420;;;24.7;30.1
79347;BME280;68815;48.810;44.482;2023-07-13T11:05:40;100424;;;24.7;30.1
79347;BME280;68815;48.810;44.482;2023-07-13T11:08:53;100427;;;24.7;29
79347;BME280;68815;48.810;44.482;2023-07-13T11:11:56;100420;;;24.5;29.6
79347;BME280;68815;48.810;44.482;2023-07-13T11:15:03;100426;;;24.2;29.9
79347;BME280;68815;48.810;44.482;2023-07-13T11:18:19;100419;;;24.3;30.7
79347;BME280;68815;48.810;44.482;2023-07-13T11:21:25;100418;;;24.4;30.2
79347;BME280;68815;48.810;44.482;2023-07-13T11:24:29;100420;;;24.3;30.5
79347;BME280;68815;48.810;44.482;2023-07-13T11:27:37;100418;;;24.4;31.7
79347;BME280;68815;48.810;44.482;2023-07-13T11:30:42;100403;;;24.5;31.6
79347;BME280;68815;48.810;44.482;2023-07-13T11:33:49;100419;;;24.1;30.7
79347;BME280;68815;48.810;44.482;2023-07-13T11:36:52;100406;;;24.1;31.3
79347;BME280;68815;48.810;44.482;2023-07-13T11:39:54;100407;;;24.3;31.3
79347;BME280;68815;48.810;44.482;2023-07-13T11:42:59;100411;;;24.5;31.5
79347;BME280;68815;48.810;44.482;2023-07-13T11:46:12;100399;;;24.6;30.8
79347;BME280;68815;48.810;44.482;2023-07-13T11:49:16;100408;;;24.6;30.6
79347;BME280;68815;48.810;44.482;2023-07-13T11:52:20;100402;;;24.4;31.1
79347;BME280;68815;48.810;44.482;2023-07-13T11:55:23;100403;;;24.5;31.1
79347;BME280;68815;48.810;44.482;2023-07-13T11:58:25;100406;;;24.5;31
79347;BME280;68815;48.810;44.482;2023-07-13T12:01:30;100409;;;24.5;30.7
79347;BME280;68815;48.810;44.482;2023-07-13T12:04:33;100407;;;24.6;30.9
79347;BME280;68815;48.810;44.482;2023-07-13T12:07:36;100406;;;24.5;30.3
79347;BME280;68815;48.810;44.482;2023-07-13T12:10:37;100404;;;24.1;30.2
79347;BME280;68815;48.810;44.482;2023-07-13T12:13:39;100414;;;23.7;31.4
79347;BME280;68815;48.810;44.482;2023-07-13T12:16:41;100414;;;23.9;31.4
79347;BME280;68815;48.810;44.482;2023-07-13T12:19:42;100413;;;23.8;31.9
79347;BME280;68815;48.810;44.482;2023-07-13T12:22:45;100417;;;24;31.9
79347;BME280;68815;48.810;44.482;2023-07-13T12:25:47;100411;;;24.3;31.7
79347;BME280;68815;48.810;44.482;2023-07-13T12:28:51;100413;;;24.3;30.8
79347;BME280;68815;48.810;44.482;2023-07-13T12:31:53;100409;;;24.1;31.3
79347;BME280;68815;48.810;44.482;2023-07-13T12:34:56;100415;;;23.9;31.3
79347;BME280;68815;48.810;44.482;2023-07-13T12:37:58;100414;;;23.6;31.7
79347;BME280;68815;48.810;44.482;2023-07-13T12:41:01;100420;;;23.5;32.7
79347;BME280;68815;48.810;44.482;2023-07-13T12:44:04;100404;;;23.6;32.8
79347;BME280;68815;48.810;44.482;2023-07-13T12:47:11;100402;;;23.8;32.5
79347;BME280;68815;48.810;44.482;2023-07-13T12:50:16;100399;;;24;32.4
79347;BME280;68815;48.810;44.482;2023-07-13T12:53:20;100400;;;24.1;32.5
79347;BME280;68815;48.810;44.482;2023-07-13T12:56:23;100395;;;24.3;32.4
79347;BME280;68815;48.810;44.482;2023-07-13T12:59:29;100398;;;24.4;32.5
79347;BME280;68815;48.810;44.482;2023-07-13T13:02:33;100401;;;24.5;31.5
79347;BME280;68815;48.810;44.482;2023-07-13T13:05:35;100402;;;24.4;31.9
79347;BME280;68815;48.810;44.482;2023-07-13T13:08:36;100384;;;24.3;32
79347;BME280;68815;48.810;44.482;2023-07-13T13:11:38;100387;;;24.3;31.4
79347;BME280;68815;48.810;44.482;2023-07-13T13:14:39;100379;;;24.2;31.6
79347;BME280;68815;48.810;44.482;2023-07-13T13:17:40;100380;;;24.2;31.3
79347;BME280;68815;48.810;44.482;2023-07-13T13:20:42;100379;;;24.2;31.7
79347;BME280;68815;48.810;44.482;2023-07-13T13:23:43;100379;;;24.2;32.3
79347;BME280;68815;48.810;44.482;2023-07-13T13:26:45;100368;;;24.2;31.6
79347;BME280;68815;48.810;44.482;2023-07-13T13:29:49;100370;;;24.2;32.2
79347;BME280;68815;48.810;44.482;2023-07-13T13:32:51;100358;;;24.2;32.2
79347;BME280;68815;48.810;44.482;2023-07-13T13:35:52;100370;;;24.2;31.8
79347;BME280;68815;48.810;44.482;2023-07-13T13:38:54;100359;;;24.3;31.7
79347;BME280;68815;48.810;44.482;2023-07-13T13:41:55;100356;;;24.3;32.2
79347;BME280;68815;48.810;44.482;2023-07-13T13:44:56;100355;;;24.3;32
79347;BME280;68815;48.810;44.482;2023-07-13T13:47:58;100347;;;24.2;32.3
79347;BME280;68815;48.810;44.482;2023-07-13T13:51:00;100344;;;24.1;31.3
79347;BME280;68815;48.810;44.482;2023-07-13T13:54:02;100345;;;24.1;32.5
79347;BME280;68815;48.810;44.482;2023-07-13T13:57:04;100348;;;24.2;33.2
79347;BME280;68815;48.810;44.482;2023-07-13T14:00:08;100345;;;24.2;32.1
79347;BME280;68815;48.810;44.482;2023-07-13T14:03:14;100349;;;24.1;31.4
79347;BME280;68815;48.810;44.482;2023-07-13T14:06:17;100344;;;24;32
79347;BME280;68815;48.810;44.482;2023-07-13T14:09:19;100338;;;23.9;31.9
79347;BME280;68815;48.810;44.482;2023-07-13T14:12:20;100346;;;23.8;32.8
79347;BME280;68815;48.810;44.482;2023-07-13T14:15:24;100345;;;23.7;32.7
79347;BME280;68815;48.810;44.482;2023-07-13T14:18:26;100345;;;23.7;33.1
79347;BME280;68815;48.810;44.482;2023-07-13T14:21:29;100347;;;23.6;32.8
79347;BME280;68815;48.810;44.482;2023-07-13T14:24:30;100346;;;23.6;34
79347;BME280;68815;48.810;44.482;2023-07-13T14:27:32;100349;;;23.7;33.6
79347;BME280;68815;48.810;44.482;2023-07-13T14:30:33;100354;;;23.7;33.8
79347;BME280;68815;48.810;44.482;2023-07-13T14:33:35;100353;;;23.7;33.7
79347;BME280;68815;48.810;44.482;2023-07-13T14:36:39;100351;;;23.8;33.2
79347;BME280;68815;48.810;44.482;2023-07-13T14:39:43;100351;;;23.9;33.3
79347;BME280;68815;48.810;44.482;2023-07-13T14:42:45;100353;;;23.9;33.5
79347;BME280;68815;48.810;44.482;2023-07-13T14:45:48;100349;;;23.9;33.3
79347;BME280;68815;48.810;44.482;2023-07-13T14:48:50;100348;;;23.8;33.1
79347;BME280;68815;48.810;44.482;2023-07-13T14:51:52;100348;;;23.8;33.7
79347;BME280;68815;48.810;44.482;2023-07-13T14:54:53;100347;;;23.7;33.9
79347;BME280;68815;48.810;44.482;2023-07-13T14:57:54;100351;;;23.7;33.9
79347;BME280;68815;48.810;44.482;2023-07-13T15:00:56;100347;;;23.6;33.5
79347;BME280;68815;48.810;44.482;2023-07-13T15:03:58;100355;;;23.5;33.1
79347;BME280;68815;48.810;44.482;2023-07-13T15:07:01;100346;;;23.5;34.1
79347;BME280;68815;48.810;44.482;2023-07-13T15:10:11;100352;;;23.5;34
79347;BME280;68815;48.810;44.482;2023-07-13T15:13:15;100346;;;23.5;33.7
79347;BME280;68815;48.810;44.482;2023-07-13T15:16:19;100347;;;23.4;33.5
79347;BME280;68815;48.810;44.482;2023-07-13T15:19:23;100345;;;23.4;34
79347;BME280;68815;48.810;44.482;2023-07-13T15:22:26;100353;;;23.4;34.6
79347;BME280;68815;48.810;44.482;2023-07-13T15:25:28;100352;;;23.4;34.6
79347;BME280;68815;48.810;44.482;2023-07-13T15:28:30;100354;;;23.3;34.6
79347;BME280;68815;48.810;44.482;2023-07-13T15:31:32;100354;;;23.3;35.4
79347;BME280;68815;48.810;44.482;2023-07-13T15:34:35;100356;;;23.2;34.9
79347;BME280;68815;48.810;44.482;2023-07-13T15:37:36;100360;;;23.2;35.7
79347;BME280;68815;48.810;44.482;2023-07-13T15:40:38;100363;;;23.2;35.6
79347;BME280;68815;48.810;44.482;2023-07-13T15:43:39;100368;;;23.1;35.7
79347;BME280;68815;48.810;44.482;2023-07-13T15:46:41;100364;;;23.1;36
79347;BME280;68815;48.810;44.482;2023-07-13T15:49:42;100360;;;23;36.4
79347;BME280;68815;48.810;44.482;2023-07-13T15:52:46;100359;;;23;36.3
79347;BME280;68815;48.810;44.482;2023-07-13T15:55:49;100368;;;23;36.1
79347;BME280;68815;48.810;44.482;2023-07-13T15:58:51;100372;;;22.9;36.4
79347;BME280;68815;48.810;44.482;2023-07-13T16:01:53;100379;;;22.9;36.5
79347;BME280;68815;48.810;44.482;2023-07-13T16:04:54;100394;;;22.9;36.8
79347;BME280;68815;48.810;44.482;2023-07-13T16:07:56;100397;;;22.9;37.5
79347;BME280;68815;48.810;44.482;2023-07-13T16:10:59;100393;;;22.8;37.7
79347;BME280;68815;48.810;44.482;2023-07-13T16:14:01;100399;;;22.8;37.9
79347;BME280;68815;48.810;44.482;2023-07-13T16:17:02;100395;;;22.8;38.2
79347;BME280;68815;48.810;44.482;2023-07-13T16:20:06;100394;;;22.8;38.4
79347;BME280;68815;48.810;44.482;2023-07-13T16:23:08;100402;;;22.8;38.1
79347;BME280;68815;48.810;44.482;2023-07-13T16:26:20;100399;;;22.7;38.2
79347;BME280;68815;48.810;44.482;2023-07-13T16:29:25;100399;;;22.7;38.4
79347;BME280;68815;48.810;44.482;2023-07-13T16:32:27;100401;;;22.5;38.8
79347;BME280;68815;48.810;44.482;2023-07-13T16:35:29;100405;;;22.4;38.3
79347;BME280;68815;48.810;44.482;2023-07-13T16:38:31;100405;;;22.4;38.5
79347;BME280;68815;48.810;44.482;2023-07-13T16:41:33;100409;;;22.4;38.8
79347;BME280;68815;48.810;44.482;2023-07-13T16:44:35;100408;;;22.4;39
79347;BME280;68815;48.810;44.482;2023-07-13T16:47:36;100405;;;22.3;38.7
79347;BME280;68815;48.810;44.482;2023-07-13T16:50:38;100410;;;22.2;39.7
79347;BME280;68815;48.810;44.482;2023-07-13T16:53:39;100404;;;22.2;39.3
79347;BME280;68815;48.810;44.482;2023-07-13T16:56:41;100413;;;22.2;39.4